Weather at Kjeller Airport

Public forecast

Using degrees Celsius for public forecast. Weather courtesy of forecast.io.

Closest aviation weather report (METAR) to Kjeller Airport

Closest report is Oslo, Fornebu Airport, 13.4 nm (24.7 km) WSW. Retrieved 2021/09/25 12:20 UTC (40 minutes ago):

ENFB 251220Z AUTO 19022KT 9999NDV OVC044/// 12/08 Q1008 W///S5

Closest aviation forecast (TAF) to Kjeller Airport

Closest forecast is Oslo Gardermoen Airport, 13.6 nm (25.2 km) N. Retrieved 2021/09/25 12:58 UTC (2 minutes ago):

TAF ENGM 251100Z 2512/2612 30008KT CAVOK BECMG 2516/2519 20010KT PROB30 2602/2609 2000 BCFG BKN002